Aérodrome :
LOGIN :

S'inscrire | Disclaimer

   EN    FR    IT 

 










Légende :    VFR   VFR Marginal   IFR   IFR Intensif   IFR Très Intensif
Visi : 
Plafond : 
>= 8 km
>= 3000ft
5 à 8 km
1000 à 3000 ft
1500m à 5 km
500 à 1000 ft
800 à 1500m
200 à 500 ft
< 800m
< 200 ft
Symboles :   Orages  Brouillard  Fortes neiges  Fortes précipitations  Vent > 20 kt
SIGMETs :   Divers  Orages  Givrage  Turbulence  Onde Orograph.  Cendres Volcan.






- Altitude de l'aérodrome : 2356 ft


LZTT - Poprad Tatry

DERNIER METAR :
  • 150800Z 15003KT 120V190 CAVOK 14/10 Q1018 NOSIG

METARs EXPIRÉS :
  • 150730Z VRB02KT CAVOK 13/09 Q1018 NOSIG
  • 150700Z VRB01KT CAVOK 12/09 Q1018 NOSIG
  • 150630Z 25003KT CAVOK 10/07 Q1018 NOSIG
  • 150600Z 27003KT CAVOK 08/07 Q1018 NOSIG
  • 150530Z 24004KT CAVOK 07/06 Q1018 NOSIG

TAF TAF LZTT
Valide du 15 à 06h jusqu'au 16 à 06h UTC


150500Z 1506/1606 25005KT CAVOK



MET'MAP, la Météo Aéronautique d'un coup d'oeil ! - Copyright ORBIFLY Décembre 2007 - Disclaimer

ORBIFLY MET'MAP TEAM :

Programmation & Développement : Alexandra Zaïnal
Conception & Développement : Baudouin d'Aumeries
Co-Programmation & Développement : Marc-Olivier Méhu
Soutien technique & logistique : Manuel Goepfert

Contact : metmap@orbifly.com




SOURCES & CREDITS :

   NOAA